sensor_id;sensor_type;location;lat;lon;timestamp;P1;durP1;ratioP1;P2;durP2;ratioP2
52104;SDS011;38103;42.776;23.112;2024-02-21T00:00:53;6.03;;;3.90;;
52104;SDS011;38103;42.776;23.112;2024-02-21T00:03:18;6.28;;;3.80;;
52104;SDS011;38103;42.776;23.112;2024-02-21T00:05:44;6.00;;;3.42;;
52104;SDS011;38103;42.776;23.112;2024-02-21T00:08:10;5.60;;;3.97;;
52104;SDS011;38103;42.776;23.112;2024-02-21T00:10:35;5.35;;;4.03;;
52104;SDS011;38103;42.776;23.112;2024-02-21T00:13:01;6.63;;;4.28;;
52104;SDS011;38103;42.776;23.112;2024-02-21T00:15:26;4.82;;;3.42;;
52104;SDS011;38103;42.776;23.112;2024-02-21T00:17:52;7.53;;;4.22;;
52104;SDS011;38103;42.776;23.112;2024-02-21T00:20:17;5.68;;;3.72;;
52104;SDS011;38103;42.776;23.112;2024-02-21T00:22:43;6.63;;;4.18;;
52104;SDS011;38103;42.776;23.112;2024-02-21T00:25:09;4.68;;;3.88;;
52104;SDS011;38103;42.776;23.112;2024-02-21T00:27:35;5.47;;;3.35;;
52104;SDS011;38103;42.776;23.112;2024-02-21T00:30:00;5.18;;;3.67;;
52104;SDS011;38103;42.776;23.112;2024-02-21T00:32:26;5.72;;;3.85;;
52104;SDS011;38103;42.776;23.112;2024-02-21T00:34:51;5.45;;;3.05;;
52104;SDS011;38103;42.776;23.112;2024-02-21T00:37:17;4.05;;;2.95;;
52104;SDS011;38103;42.776;23.112;2024-02-21T00:39:42;4.72;;;3.70;;
52104;SDS011;38103;42.776;23.112;2024-02-21T00:42:08;3.65;;;3.15;;
52104;SDS011;38103;42.776;23.112;2024-02-21T00:44:33;5.03;;;3.17;;
52104;SDS011;38103;42.776;23.112;2024-02-21T00:46:58;4.57;;;3.53;;
52104;SDS011;38103;42.776;23.112;2024-02-21T00:49:24;4.18;;;2.63;;
52104;SDS011;38103;42.776;23.112;2024-02-21T00:51:49;3.13;;;2.67;;
52104;SDS011;38103;42.776;23.112;2024-02-21T00:54:14;3.22;;;2.80;;
52104;SDS011;38103;42.776;23.112;2024-02-21T00:56:41;2.90;;;2.42;;
52104;SDS011;38103;42.776;23.112;2024-02-21T00:59:06;4.35;;;2.90;;
52104;SDS011;38103;42.776;23.112;2024-02-21T01:01:32;3.10;;;2.67;;
52104;SDS011;38103;42.776;23.112;2024-02-21T01:03:57;3.95;;;2.50;;
52104;SDS011;38103;42.776;23.112;2024-02-21T01:06:22;3.60;;;2.72;;
52104;SDS011;38103;42.776;23.112;2024-02-21T01:08:48;4.82;;;3.45;;
52104;SDS011;38103;42.776;23.112;2024-02-21T01:11:14;4.97;;;3.45;;
52104;SDS011;38103;42.776;23.112;2024-02-21T01:13:40;3.88;;;2.55;;
52104;SDS011;38103;42.776;23.112;2024-02-21T01:16:05;3.30;;;3.03;;
52104;SDS011;38103;42.776;23.112;2024-02-21T01:18:32;6.68;;;3.83;;
52104;SDS011;38103;42.776;23.112;2024-02-21T01:20:58;4.55;;;3.50;;
52104;SDS011;38103;42.776;23.112;2024-02-21T01:23:24;5.47;;;3.67;;
52104;SDS011;38103;42.776;23.112;2024-02-21T01:25:49;5.05;;;3.40;;
52104;SDS011;38103;42.776;23.112;2024-02-21T01:28:14;4.35;;;3.17;;
52104;SDS011;38103;42.776;23.112;2024-02-21T01:30:40;5.22;;;3.20;;
52104;SDS011;38103;42.776;23.112;2024-02-21T01:33:05;5.18;;;3.42;;
52104;SDS011;38103;42.776;23.112;2024-02-21T01:35:30;4.97;;;3.15;;
52104;SDS011;38103;42.776;23.112;2024-02-21T01:37:56;6.00;;;3.60;;
52104;SDS011;38103;42.776;23.112;2024-02-21T01:40:21;4.60;;;3.72;;
52104;SDS011;38103;42.776;23.112;2024-02-21T01:42:46;5.55;;;3.78;;
52104;SDS011;38103;42.776;23.112;2024-02-21T01:47:38;7.18;;;3.72;;
52104;SDS011;38103;42.776;23.112;2024-02-21T01:50:04;5.25;;;3.35;;
52104;SDS011;38103;42.776;23.112;2024-02-21T01:52:30;5.50;;;3.72;;
52104;SDS011;38103;42.776;23.112;2024-02-21T01:54:56;4.80;;;3.58;;
52104;SDS011;38103;42.776;23.112;2024-02-21T01:59:48;7.63;;;3.28;;
52104;SDS011;38103;42.776;23.112;2024-02-21T02:02:13;5.13;;;3.92;;
52104;SDS011;38103;42.776;23.112;2024-02-21T02:04:41;8.00;;;4.28;;
52104;SDS011;38103;42.776;23.112;2024-02-21T02:07:07;6.50;;;4.60;;
52104;SDS011;38103;42.776;23.112;2024-02-21T02:09:33;9.00;;;4.90;;
52104;SDS011;38103;42.776;23.112;2024-02-21T02:11:58;4.35;;;3.90;;
52104;SDS011;38103;42.776;23.112;2024-02-21T02:14:25;7.68;;;4.45;;
52104;SDS011;38103;42.776;23.112;2024-02-21T02:16:50;7.45;;;4.72;;
52104;SDS011;38103;42.776;23.112;2024-02-21T02:19:16;8.95;;;5.28;;
52104;SDS011;38103;42.776;23.112;2024-02-21T02:21:42;8.32;;;4.43;;
52104;SDS011;38103;42.776;23.112;2024-02-21T02:24:13;9.35;;;5.05;;
52104;SDS011;38103;42.776;23.112;2024-02-21T02:26:39;8.20;;;4.38;;
52104;SDS011;38103;42.776;23.112;2024-02-21T02:29:04;9.68;;;5.45;;
52104;SDS011;38103;42.776;23.112;2024-02-21T02:31:30;11.68;;;6.22;;
52104;SDS011;38103;42.776;23.112;2024-02-21T02:33:55;12.25;;;6.45;;
52104;SDS011;38103;42.776;23.112;2024-02-21T02:36:21;10.05;;;6.97;;
52104;SDS011;38103;42.776;23.112;2024-02-21T02:38:46;10.23;;;6.03;;
52104;SDS011;38103;42.776;23.112;2024-02-21T02:41:11;10.43;;;6.38;;
52104;SDS011;38103;42.776;23.112;2024-02-21T02:43:37;9.25;;;5.90;;
52104;SDS011;38103;42.776;23.112;2024-02-21T02:46:02;8.43;;;5.00;;
52104;SDS011;38103;42.776;23.112;2024-02-21T02:48:28;10.30;;;6.07;;
52104;SDS011;38103;42.776;23.112;2024-02-21T02:50:54;12.23;;;7.15;;
52104;SDS011;38103;42.776;23.112;2024-02-21T02:53:20;8.75;;;5.50;;
52104;SDS011;38103;42.776;23.112;2024-02-21T02:55:45;10.40;;;5.75;;
52104;SDS011;38103;42.776;23.112;2024-02-21T02:58:11;12.85;;;6.38;;
52104;SDS011;38103;42.776;23.112;2024-02-21T03:00:36;10.52;;;6.40;;
52104;SDS011;38103;42.776;23.112;2024-02-21T03:03:03;11.98;;;5.70;;
52104;SDS011;38103;42.776;23.112;2024-02-21T03:05:29;9.88;;;6.10;;
52104;SDS011;38103;42.776;23.112;2024-02-21T03:07:54;12.05;;;6.30;;
52104;SDS011;38103;42.776;23.112;2024-02-21T03:10:20;12.88;;;6.55;;
52104;SDS011;38103;42.776;23.112;2024-02-21T03:12:46;12.55;;;6.80;;
52104;SDS011;38103;42.776;23.112;2024-02-21T03:15:11;8.70;;;5.93;;
52104;SDS011;38103;42.776;23.112;2024-02-21T03:17:37;11.60;;;6.32;;
52104;SDS011;38103;42.776;23.112;2024-02-21T03:20:03;11.63;;;5.93;;
52104;SDS011;38103;42.776;23.112;2024-02-21T03:22:30;14.02;;;6.50;;
52104;SDS011;38103;42.776;23.112;2024-02-21T03:24:58;10.43;;;6.10;;
52104;SDS011;38103;42.776;23.112;2024-02-21T03:27:23;10.70;;;6.55;;
52104;SDS011;38103;42.776;23.112;2024-02-21T03:29:49;10.23;;;6.32;;
52104;SDS011;38103;42.776;23.112;2024-02-21T03:32:14;10.18;;;6.00;;
52104;SDS011;38103;42.776;23.112;2024-02-21T03:34:39;15.82;;;6.95;;
52104;SDS011;38103;42.776;23.112;2024-02-21T03:37:05;12.02;;;7.72;;
52104;SDS011;38103;42.776;23.112;2024-02-21T03:39:31;9.38;;;6.10;;
52104;SDS011;38103;42.776;23.112;2024-02-21T03:44:23;12.45;;;6.78;;
52104;SDS011;38103;42.776;23.112;2024-02-21T03:46:48;11.57;;;6.90;;
52104;SDS011;38103;42.776;23.112;2024-02-21T03:49:13;12.30;;;6.00;;
52104;SDS011;38103;42.776;23.112;2024-02-21T03:51:39;10.40;;;6.75;;
52104;SDS011;38103;42.776;23.112;2024-02-21T03:54:04;12.38;;;6.10;;
52104;SDS011;38103;42.776;23.112;2024-02-21T03:56:29;10.98;;;5.82;;
52104;SDS011;38103;42.776;23.112;2024-02-21T03:58:55;8.15;;;6.28;;
52104;SDS011;38103;42.776;23.112;2024-02-21T04:01:20;13.57;;;6.18;;
52104;SDS011;38103;42.776;23.112;2024-02-21T04:03:46;9.90;;;6.35;;
52104;SDS011;38103;42.776;23.112;2024-02-21T04:06:11;10.43;;;5.97;;
52104;SDS011;38103;42.776;23.112;2024-02-21T04:08:37;12.60;;;6.43;;
52104;SDS011;38103;42.776;23.112;2024-02-21T04:11:02;8.88;;;5.00;;
52104;SDS011;38103;42.776;23.112;2024-02-21T04:13:28;8.00;;;5.20;;
52104;SDS011;38103;42.776;23.112;2024-02-21T04:15:53;7.40;;;5.07;;
52104;SDS011;38103;42.776;23.112;2024-02-21T04:18:19;9.20;;;5.57;;
52104;SDS011;38103;42.776;23.112;2024-02-21T04:20:44;9.30;;;5.22;;
52104;SDS011;38103;42.776;23.112;2024-02-21T04:23:09;9.38;;;4.75;;
52104;SDS011;38103;42.776;23.112;2024-02-21T04:25:35;9.77;;;5.53;;
52104;SDS011;38103;42.776;23.112;2024-02-21T04:28:01;11.13;;;5.95;;
52104;SDS011;38103;42.776;23.112;2024-02-21T04:30:26;6.53;;;4.30;;
52104;SDS011;38103;42.776;23.112;2024-02-21T04:32:52;11.40;;;6.03;;
52104;SDS011;38103;42.776;23.112;2024-02-21T04:35:17;8.50;;;5.28;;
52104;SDS011;38103;42.776;23.112;2024-02-21T04:37:42;9.18;;;5.18;;
52104;SDS011;38103;42.776;23.112;2024-02-21T04:40:08;10.60;;;6.15;;
52104;SDS011;38103;42.776;23.112;2024-02-21T04:42:34;10.80;;;6.30;;
52104;SDS011;38103;42.776;23.112;2024-02-21T04:44:59;9.75;;;5.60;;
52104;SDS011;38103;42.776;23.112;2024-02-21T04:47:25;11.05;;;5.80;;
52104;SDS011;38103;42.776;23.112;2024-02-21T04:49:51;10.07;;;5.22;;
52104;SDS011;38103;42.776;23.112;2024-02-21T04:52:17;12.65;;;6.28;;
52104;SDS011;38103;42.776;23.112;2024-02-21T04:54:42;10.80;;;5.97;;
52104;SDS011;38103;42.776;23.112;2024-02-21T04:57:07;10.73;;;6.28;;
52104;SDS011;38103;42.776;23.112;2024-02-21T04:59:35;12.90;;;6.47;;
52104;SDS011;38103;42.776;23.112;2024-02-21T05:02:01;12.48;;;6.47;;
52104;SDS011;38103;42.776;23.112;2024-02-21T05:04:26;9.48;;;5.68;;
52104;SDS011;38103;42.776;23.112;2024-02-21T05:06:51;12.82;;;6.57;;
52104;SDS011;38103;42.776;23.112;2024-02-21T05:09:17;10.68;;;6.93;;
52104;SDS011;38103;42.776;23.112;2024-02-21T05:11:42;10.95;;;6.22;;
52104;SDS011;38103;42.776;23.112;2024-02-21T05:14:07;11.27;;;7.07;;
52104;SDS011;38103;42.776;23.112;2024-02-21T05:16:33;16.42;;;7.43;;
52104;SDS011;38103;42.776;23.112;2024-02-21T05:18:58;15.02;;;7.82;;
52104;SDS011;38103;42.776;23.112;2024-02-21T05:21:24;15.48;;;8.63;;
52104;SDS011;38103;42.776;23.112;2024-02-21T05:23:50;13.95;;;7.57;;
52104;SDS011;38103;42.776;23.112;2024-02-21T05:26:21;18.63;;;8.45;;
52104;SDS011;38103;42.776;23.112;2024-02-21T05:28:48;14.57;;;8.35;;
52104;SDS011;38103;42.776;23.112;2024-02-21T05:31:14;16.20;;;8.73;;
52104;SDS011;38103;42.776;23.112;2024-02-21T05:33:39;15.05;;;7.80;;
52104;SDS011;38103;42.776;23.112;2024-02-21T05:36:05;15.77;;;7.68;;
52104;SDS011;38103;42.776;23.112;2024-02-21T05:38:30;12.70;;;8.32;;
52104;SDS011;38103;42.776;23.112;2024-02-21T05:40:56;16.33;;;8.05;;
52104;SDS011;38103;42.776;23.112;2024-02-21T05:43:22;16.05;;;9.15;;
52104;SDS011;38103;42.776;23.112;2024-02-21T05:45:47;18.45;;;8.95;;
52104;SDS011;38103;42.776;23.112;2024-02-21T05:48:13;18.85;;;8.68;;
52104;SDS011;38103;42.776;23.112;2024-02-21T05:50:39;16.20;;;8.38;;
52104;SDS011;38103;42.776;23.112;2024-02-21T05:53:04;13.23;;;8.48;;
52104;SDS011;38103;42.776;23.112;2024-02-21T05:55:29;18.67;;;9.07;;
52104;SDS011;38103;42.776;23.112;2024-02-21T05:57:55;17.20;;;9.40;;
52104;SDS011;38103;42.776;23.112;2024-02-21T06:00:20;14.73;;;8.20;;
52104;SDS011;38103;42.776;23.112;2024-02-21T06:02:46;18.50;;;8.68;;
52104;SDS011;38103;42.776;23.112;2024-02-21T06:05:11;19.20;;;8.75;;
52104;SDS011;38103;42.776;23.112;2024-02-21T06:07:37;17.20;;;9.70;;
52104;SDS011;38103;42.776;23.112;2024-02-21T06:10:04;14.73;;;8.27;;
52104;SDS011;38103;42.776;23.112;2024-02-21T06:12:30;13.82;;;8.45;;
52104;SDS011;38103;42.776;23.112;2024-02-21T06:14:55;15.30;;;9.02;;
52104;SDS011;38103;42.776;23.112;2024-02-21T06:17:20;16.13;;;8.68;;
52104;SDS011;38103;42.776;23.112;2024-02-21T06:19:46;16.33;;;9.52;;
52104;SDS011;38103;42.776;23.112;2024-02-21T06:22:11;16.33;;;8.95;;
52104;SDS011;38103;42.776;23.112;2024-02-21T06:24:37;20.25;;;8.75;;
52104;SDS011;38103;42.776;23.112;2024-02-21T06:27:06;17.50;;;9.38;;
52104;SDS011;38103;42.776;23.112;2024-02-21T06:29:32;17.85;;;8.52;;
52104;SDS011;38103;42.776;23.112;2024-02-21T06:31:58;15.70;;;8.30;;
52104;SDS011;38103;42.776;23.112;2024-02-21T06:34:23;13.23;;;7.70;;
52104;SDS011;38103;42.776;23.112;2024-02-21T06:36:49;17.85;;;8.10;;
52104;SDS011;38103;42.776;23.112;2024-02-21T06:39:15;14.35;;;7.82;;
52104;SDS011;38103;42.776;23.112;2024-02-21T06:41:40;15.63;;;8.68;;
52104;SDS011;38103;42.776;23.112;2024-02-21T06:44:06;16.73;;;8.95;;
52104;SDS011;38103;42.776;23.112;2024-02-21T06:46:31;16.45;;;8.10;;
52104;SDS011;38103;42.776;23.112;2024-02-21T06:48:59;17.75;;;7.95;;
52104;SDS011;38103;42.776;23.112;2024-02-21T06:51:26;17.60;;;9.80;;
52104;SDS011;38103;42.776;23.112;2024-02-21T06:53:52;14.25;;;7.95;;
52104;SDS011;38103;42.776;23.112;2024-02-21T06:56:17;14.63;;;8.05;;
52104;SDS011;38103;42.776;23.112;2024-02-21T06:58:43;17.77;;;9.13;;
52104;SDS011;38103;42.776;23.112;2024-02-21T07:01:08;12.98;;;7.18;;
52104;SDS011;38103;42.776;23.112;2024-02-21T07:03:34;15.50;;;8.55;;
52104;SDS011;38103;42.776;23.112;2024-02-21T07:05:59;15.23;;;8.75;;
52104;SDS011;38103;42.776;23.112;2024-02-21T07:08:24;16.27;;;8.38;;
52104;SDS011;38103;42.776;23.112;2024-02-21T07:10:50;13.43;;;7.63;;
52104;SDS011;38103;42.776;23.112;2024-02-21T07:13:15;13.75;;;8.02;;
52104;SDS011;38103;42.776;23.112;2024-02-21T07:15:41;13.38;;;7.68;;
52104;SDS011;38103;42.776;23.112;2024-02-21T07:18:07;13.60;;;7.13;;
52104;SDS011;38103;42.776;23.112;2024-02-21T07:20:32;13.68;;;8.20;;
52104;SDS011;38103;42.776;23.112;2024-02-21T07:23:06;16.40;;;9.25;;
52104;SDS011;38103;42.776;23.112;2024-02-21T07:25:31;18.90;;;8.32;;
52104;SDS011;38103;42.776;23.112;2024-02-21T07:27:57;14.45;;;7.93;;
52104;SDS011;38103;42.776;23.112;2024-02-21T07:30:22;13.30;;;7.20;;
52104;SDS011;38103;42.776;23.112;2024-02-21T07:32:50;13.43;;;7.22;;
52104;SDS011;38103;42.776;23.112;2024-02-21T07:35:19;14.90;;;8.15;;
52104;SDS011;38103;42.776;23.112;2024-02-21T07:37:45;16.02;;;8.32;;
52104;SDS011;38103;42.776;23.112;2024-02-21T07:40:13;13.02;;;7.07;;
52104;SDS011;38103;42.776;23.112;2024-02-21T07:42:40;13.63;;;7.82;;
52104;SDS011;38103;42.776;23.112;2024-02-21T07:45:06;12.32;;;7.07;;
52104;SDS011;38103;42.776;23.112;2024-02-21T07:47:32;16.40;;;9.07;;
52104;SDS011;38103;42.776;23.112;2024-02-21T07:49:58;13.65;;;8.32;;
52104;SDS011;38103;42.776;23.112;2024-02-21T07:52:23;10.57;;;7.30;;
52104;SDS011;38103;42.776;23.112;2024-02-21T07:54:49;20.00;;;8.05;;
52104;SDS011;38103;42.776;23.112;2024-02-21T07:57:15;13.63;;;7.20;;
52104;SDS011;38103;42.776;23.112;2024-02-21T07:59:40;13.15;;;8.50;;
52104;SDS011;38103;42.776;23.112;2024-02-21T08:02:05;13.80;;;7.45;;
52104;SDS011;38103;42.776;23.112;2024-02-21T08:04:32;14.38;;;7.70;;
52104;SDS011;38103;42.776;23.112;2024-02-21T08:06:57;14.82;;;8.77;;
52104;SDS011;38103;42.776;23.112;2024-02-21T08:09:26;16.08;;;8.63;;
52104;SDS011;38103;42.776;23.112;2024-02-21T08:11:51;14.10;;;8.10;;
52104;SDS011;38103;42.776;23.112;2024-02-21T08:14:17;14.35;;;8.32;;
52104;SDS011;38103;42.776;23.112;2024-02-21T08:16:42;12.55;;;8.55;;
52104;SDS011;38103;42.776;23.112;2024-02-21T08:19:08;15.52;;;9.80;;
52104;SDS011;38103;42.776;23.112;2024-02-21T08:21:35;11.77;;;8.05;;
52104;SDS011;38103;42.776;23.112;2024-02-21T08:24:00;16.33;;;9.05;;
52104;SDS011;38103;42.776;23.112;2024-02-21T08:26:26;13.88;;;8.07;;
52104;SDS011;38103;42.776;23.112;2024-02-21T08:28:55;13.63;;;7.35;;
52104;SDS011;38103;42.776;23.112;2024-02-21T08:31:20;50.75;;;19.25;;
52104;SDS011;38103;42.776;23.112;2024-02-21T08:33:46;21.42;;;11.02;;
52104;SDS011;38103;42.776;23.112;2024-02-21T08:36:17;16.90;;;9.02;;
52104;SDS011;38103;42.776;23.112;2024-02-21T08:38:44;16.17;;;9.07;;
52104;SDS011;38103;42.776;23.112;2024-02-21T08:41:10;26.88;;;12.90;;
52104;SDS011;38103;42.776;23.112;2024-02-21T08:43:35;20.63;;;11.25;;
52104;SDS011;38103;42.776;23.112;2024-02-21T08:46:01;14.77;;;9.43;;
52104;SDS011;38103;42.776;23.112;2024-02-21T08:48:26;13.40;;;8.30;;
52104;SDS011;38103;42.776;23.112;2024-02-21T08:50:51;16.63;;;8.85;;
52104;SDS011;38103;42.776;23.112;2024-02-21T08:53:17;15.68;;;9.15;;
52104;SDS011;38103;42.776;23.112;2024-02-21T08:55:42;16.95;;;9.63;;
52104;SDS011;38103;42.776;23.112;2024-02-21T08:58:09;13.93;;;8.45;;
52104;SDS011;38103;42.776;23.112;2024-02-21T09:00:34;12.98;;;8.70;;
52104;SDS011;38103;42.776;23.112;2024-02-21T09:03:00;11.50;;;8.30;;
52104;SDS011;38103;42.776;23.112;2024-02-21T09:05:26;14.35;;;8.52;;
52104;SDS011;38103;42.776;23.112;2024-02-21T09:07:51;15.43;;;8.93;;
52104;SDS011;38103;42.776;23.112;2024-02-21T09:10:16;11.55;;;7.05;;
52104;SDS011;38103;42.776;23.112;2024-02-21T09:12:42;16.45;;;8.88;;
52104;SDS011;38103;42.776;23.112;2024-02-21T09:15:08;13.13;;;7.65;;
52104;SDS011;38103;42.776;23.112;2024-02-21T09:17:34;15.32;;;8.23;;
52104;SDS011;38103;42.776;23.112;2024-02-21T09:19:59;13.32;;;7.68;;
52104;SDS011;38103;42.776;23.112;2024-02-21T09:22:28;9.73;;;6.63;;
52104;SDS011;38103;42.776;23.112;2024-02-21T09:24:53;11.75;;;6.88;;
52104;SDS011;38103;42.776;23.112;2024-02-21T09:27:19;11.07;;;7.13;;
52104;SDS011;38103;42.776;23.112;2024-02-21T09:29:44;11.35;;;7.53;;
52104;SDS011;38103;42.776;23.112;2024-02-21T09:32:09;9.95;;;7.05;;
52104;SDS011;38103;42.776;23.112;2024-02-21T09:34:35;10.32;;;7.07;;
52104;SDS011;38103;42.776;23.112;2024-02-21T09:37:00;10.93;;;7.38;;
52104;SDS011;38103;42.776;23.112;2024-02-21T09:39:25;11.25;;;6.50;;
52104;SDS011;38103;42.776;23.112;2024-02-21T09:41:53;10.45;;;7.28;;
52104;SDS011;38103;42.776;23.112;2024-02-21T09:44:22;9.68;;;6.32;;
52104;SDS011;38103;42.776;23.112;2024-02-21T09:46:55;8.68;;;6.22;;
52104;SDS011;38103;42.776;23.112;2024-02-21T09:49:32;8.63;;;5.80;;
52104;SDS011;38103;42.776;23.112;2024-02-21T09:52:02;9.98;;;6.10;;
52104;SDS011;38103;42.776;23.112;2024-02-21T09:54:29;7.10;;;5.50;;
52104;SDS011;38103;42.776;23.112;2024-02-21T09:56:58;8.13;;;5.80;;
52104;SDS011;38103;42.776;23.112;2024-02-21T09:59:24;10.80;;;6.30;;
52104;SDS011;38103;42.776;23.112;2024-02-21T10:01:50;9.00;;;6.20;;
52104;SDS011;38103;42.776;23.112;2024-02-21T10:04:16;7.78;;;5.60;;
52104;SDS011;38103;42.776;23.112;2024-02-21T10:06:43;9.30;;;6.28;;
52104;SDS011;38103;42.776;23.112;2024-02-21T10:09:19;7.88;;;5.07;;
52104;SDS011;38103;42.776;23.112;2024-02-21T10:11:45;7.68;;;5.30;;
52104;SDS011;38103;42.776;23.112;2024-02-21T10:14:10;9.43;;;5.30;;
52104;SDS011;38103;42.776;23.112;2024-02-21T10:16:36;8.40;;;4.93;;
52104;SDS011;38103;42.776;23.112;2024-02-21T10:19:02;5.85;;;5.10;;
52104;SDS011;38103;42.776;23.112;2024-02-21T10:21:28;7.80;;;4.35;;
52104;SDS011;38103;42.776;23.112;2024-02-21T10:23:54;5.22;;;4.10;;
52104;SDS011;38103;42.776;23.112;2024-02-21T10:26:20;5.72;;;3.85;;
52104;SDS011;38103;42.776;23.112;2024-02-21T10:28:46;5.28;;;3.92;;
52104;SDS011;38103;42.776;23.112;2024-02-21T10:31:25;7.70;;;4.35;;
52104;SDS011;38103;42.776;23.112;2024-02-21T10:36:21;9.30;;;4.45;;
52104;SDS011;38103;42.776;23.112;2024-02-21T10:38:47;4.60;;;3.42;;
52104;SDS011;38103;42.776;23.112;2024-02-21T10:41:13;4.82;;;3.80;;
52104;SDS011;38103;42.776;23.112;2024-02-21T10:43:41;4.80;;;3.90;;
52104;SDS011;38103;42.776;23.112;2024-02-21T10:46:06;5.88;;;3.80;;
52104;SDS011;38103;42.776;23.112;2024-02-21T10:48:41;4.40;;;4.00;;
52104;SDS011;38103;42.776;23.112;2024-02-21T10:56:26;4.05;;;3.28;;
52104;SDS011;38103;42.776;23.112;2024-02-21T10:58:55;4.63;;;3.88;;
52104;SDS011;38103;42.776;23.112;2024-02-21T11:01:23;6.72;;;4.18;;
52104;SDS011;38103;42.776;23.112;2024-02-21T11:03:52;3.95;;;3.17;;
52104;SDS011;38103;42.776;23.112;2024-02-21T11:06:19;4.88;;;2.92;;
52104;SDS011;38103;42.776;23.112;2024-02-21T11:08:46;5.90;;;4.10;;
52104;SDS011;38103;42.776;23.112;2024-02-21T11:11:12;4.60;;;3.70;;
52104;SDS011;38103;42.776;23.112;2024-02-21T11:13:44;6.20;;;4.13;;
52104;SDS011;38103;42.776;23.112;2024-02-21T11:16:11;4.22;;;3.10;;
52104;SDS011;38103;42.776;23.112;2024-02-21T11:18:46;3.90;;;3.50;;
52104;SDS011;38103;42.776;23.112;2024-02-21T11:21:11;5.10;;;3.60;;
52104;SDS011;38103;42.776;23.112;2024-02-21T11:23:37;5.75;;;3.63;;
52104;SDS011;38103;42.776;23.112;2024-02-21T11:28:31;6.25;;;3.90;;
52104;SDS011;38103;42.776;23.112;2024-02-21T11:31:07;6.22;;;3.53;;
52104;SDS011;38103;42.776;23.112;2024-02-21T11:33:41;6.40;;;4.05;;
52104;SDS011;38103;42.776;23.112;2024-02-21T11:36:08;6.88;;;3.70;;
52104;SDS011;38103;42.776;23.112;2024-02-21T11:38:34;4.53;;;3.58;;
52104;SDS011;38103;42.776;23.112;2024-02-21T11:40:59;4.35;;;3.90;;
52104;SDS011;38103;42.776;23.112;2024-02-21T11:43:25;5.15;;;3.47;;
52104;SDS011;38103;42.776;23.112;2024-02-21T11:45:50;4.82;;;3.35;;
52104;SDS011;38103;42.776;23.112;2024-02-21T11:48:23;4.30;;;2.83;;
52104;SDS011;38103;42.776;23.112;2024-02-21T11:50:52;5.43;;;3.40;;
52104;SDS011;38103;42.776;23.112;2024-02-21T11:53:20;5.22;;;3.60;;
52104;SDS011;38103;42.776;23.112;2024-02-21T11:55:45;4.70;;;3.45;;
52104;SDS011;38103;42.776;23.112;2024-02-21T11:58:11;7.35;;;3.78;;
52104;SDS011;38103;42.776;23.112;2024-02-21T12:00:36;5.22;;;3.97;;
52104;SDS011;38103;42.776;23.112;2024-02-21T12:03:02;4.55;;;3.33;;
52104;SDS011;38103;42.776;23.112;2024-02-21T12:05:28;8.50;;;3.63;;
52104;SDS011;38103;42.776;23.112;2024-02-21T12:07:54;5.55;;;3.78;;
52104;SDS011;38103;42.776;23.112;2024-02-21T12:10:20;6.97;;;4.68;;
52104;SDS011;38103;42.776;23.112;2024-02-21T12:12:45;7.13;;;4.55;;
52104;SDS011;38103;42.776;23.112;2024-02-21T12:15:10;9.45;;;4.93;;
52104;SDS011;38103;42.776;23.112;2024-02-21T12:17:36;8.27;;;5.80;;
52104;SDS011;38103;42.776;23.112;2024-02-21T12:20:03;6.75;;;4.40;;
52104;SDS011;38103;42.776;23.112;2024-02-21T12:22:36;8.73;;;4.78;;
52104;SDS011;38103;42.776;23.112;2024-02-21T12:27:50;11.50;;;4.82;;
52104;SDS011;38103;42.776;23.112;2024-02-21T12:30:16;17.33;;;7.22;;
52104;SDS011;38103;42.776;23.112;2024-02-21T12:32:42;12.55;;;5.95;;
52104;SDS011;38103;42.776;23.112;2024-02-21T12:35:07;6.47;;;4.43;;
52104;SDS011;38103;42.776;23.112;2024-02-21T12:37:33;6.18;;;4.13;;
52104;SDS011;38103;42.776;23.112;2024-02-21T12:39:58;11.80;;;6.55;;
52104;SDS011;38103;42.776;23.112;2024-02-21T12:42:24;8.55;;;5.75;;
52104;SDS011;38103;42.776;23.112;2024-02-21T12:47:17;10.77;;;6.15;;
52104;SDS011;38103;42.776;23.112;2024-02-21T12:49:44;6.32;;;4.65;;
52104;SDS011;38103;42.776;23.112;2024-02-21T12:52:09;5.63;;;3.95;;
52104;SDS011;38103;42.776;23.112;2024-02-21T12:54:35;5.72;;;4.35;;
52104;SDS011;38103;42.776;23.112;2024-02-21T12:57:00;4.72;;;3.92;;
52104;SDS011;38103;42.776;23.112;2024-02-21T12:59:28;5.53;;;4.35;;
52104;SDS011;38103;42.776;23.112;2024-02-21T13:01:54;7.95;;;4.10;;
52104;SDS011;38103;42.776;23.112;2024-02-21T13:04:19;5.63;;;4.35;;
52104;SDS011;38103;42.776;23.112;2024-02-21T13:06:46;8.82;;;4.35;;
52104;SDS011;38103;42.776;23.112;2024-02-21T13:09:12;7.95;;;4.55;;
52104;SDS011;38103;42.776;23.112;2024-02-21T13:11:38;13.10;;;5.82;;
52104;SDS011;38103;42.776;23.112;2024-02-21T13:14:05;5.72;;;4.22;;
52104;SDS011;38103;42.776;23.112;2024-02-21T13:16:30;6.72;;;5.15;;
52104;SDS011;38103;42.776;23.112;2024-02-21T13:18:56;7.22;;;4.13;;
52104;SDS011;38103;42.776;23.112;2024-02-21T13:21:21;10.80;;;5.20;;
52104;SDS011;38103;42.776;23.112;2024-02-21T13:23:47;6.88;;;4.85;;
52104;SDS011;38103;42.776;23.112;2024-02-21T13:26:12;7.68;;;4.15;;
52104;SDS011;38103;42.776;23.112;2024-02-21T13:31:04;6.50;;;3.87;;
52104;SDS011;38103;42.776;23.112;2024-02-21T13:33:29;5.90;;;4.07;;
52104;SDS011;38103;42.776;23.112;2024-02-21T13:35:55;6.20;;;4.22;;
52104;SDS011;38103;42.776;23.112;2024-02-21T13:38:20;8.00;;;5.20;;
52104;SDS011;38103;42.776;23.112;2024-02-21T13:40:45;6.43;;;4.22;;
52104;SDS011;38103;42.776;23.112;2024-02-21T13:43:11;5.10;;;3.45;;
52104;SDS011;38103;42.776;23.112;2024-02-21T13:45:37;6.45;;;3.83;;
52104;SDS011;38103;42.776;23.112;2024-02-21T13:48:03;6.55;;;4.43;;
52104;SDS011;38103;42.776;23.112;2024-02-21T13:50:31;7.65;;;4.47;;
52104;SDS011;38103;42.776;23.112;2024-02-21T13:52:57;9.27;;;5.03;;
52104;SDS011;38103;42.776;23.112;2024-02-21T13:55:22;5.95;;;3.88;;
52104;SDS011;38103;42.776;23.112;2024-02-21T13:57:51;7.18;;;4.20;;
52104;SDS011;38103;42.776;23.112;2024-02-21T14:00:16;4.00;;;3.20;;
52104;SDS011;38103;42.776;23.112;2024-02-21T14:02:43;8.15;;;4.60;;
52104;SDS011;38103;42.776;23.112;2024-02-21T14:05:10;7.57;;;3.83;;
52104;SDS011;38103;42.776;23.112;2024-02-21T14:07:35;5.75;;;3.47;;
52104;SDS011;38103;42.776;23.112;2024-02-21T14:10:00;4.97;;;3.40;;
52104;SDS011;38103;42.776;23.112;2024-02-21T14:12:26;3.92;;;3.38;;
52104;SDS011;38103;42.776;23.112;2024-02-21T14:14:51;4.07;;;3.03;;
52104;SDS011;38103;42.776;23.112;2024-02-21T14:17:17;5.40;;;3.80;;
52104;SDS011;38103;42.776;23.112;2024-02-21T14:19:43;4.97;;;3.75;;
52104;SDS011;38103;42.776;23.112;2024-02-21T14:22:08;4.68;;;3.63;;
52104;SDS011;38103;42.776;23.112;2024-02-21T14:24:35;6.30;;;4.55;;
52104;SDS011;38103;42.776;23.112;2024-02-21T14:27:00;4.93;;;3.83;;
52104;SDS011;38103;42.776;23.112;2024-02-21T14:29:25;4.88;;;3.92;;
52104;SDS011;38103;42.776;23.112;2024-02-21T14:31:51;3.30;;;2.97;;
52104;SDS011;38103;42.776;23.112;2024-02-21T14:34:16;6.93;;;3.92;;
52104;SDS011;38103;42.776;23.112;2024-02-21T14:36:41;6.80;;;4.10;;
52104;SDS011;38103;42.776;23.112;2024-02-21T14:39:07;3.70;;;2.95;;
52104;SDS011;38103;42.776;23.112;2024-02-21T14:41:32;4.32;;;3.50;;
52104;SDS011;38103;42.776;23.112;2024-02-21T14:44:00;6.03;;;3.80;;
52104;SDS011;38103;42.776;23.112;2024-02-21T14:46:26;5.60;;;4.05;;